sensor_id;sensor_type;location;lat;lon;timestamp;P1;durP1;ratioP1;P2;durP2;ratioP2
15230;SDS011;32569;51.762;8.564;2023-12-20T00:01:22;3.80;;;3.50;;
15230;SDS011;32569;51.762;8.564;2023-12-20T00:03:49;3.70;;;3.40;;
15230;SDS011;32569;51.762;8.564;2023-12-20T00:06:15;4.07;;;3.40;;
15230;SDS011;32569;51.762;8.564;2023-12-20T00:08:42;3.23;;;2.97;;
15230;SDS011;32569;51.762;8.564;2023-12-20T00:11:09;3.20;;;3.00;;
15230;SDS011;32569;51.762;8.564;2023-12-20T00:13:36;3.33;;;3.13;;
15230;SDS011;32569;51.762;8.564;2023-12-20T00:16:04;3.60;;;3.40;;
15230;SDS011;32569;51.762;8.564;2023-12-20T00:18:31;3.40;;;3.20;;
15230;SDS011;32569;51.762;8.564;2023-12-20T00:20:58;3.67;;;3.37;;
15230;SDS011;32569;51.762;8.564;2023-12-20T00:23:25;3.73;;;3.43;;
15230;SDS011;32569;51.762;8.564;2023-12-20T00:25:51;3.97;;;3.57;;
15230;SDS011;32569;51.762;8.564;2023-12-20T00:28:18;3.63;;;3.37;;
15230;SDS011;32569;51.762;8.564;2023-12-20T00:30:44;3.67;;;3.37;;
15230;SDS011;32569;51.762;8.564;2023-12-20T00:33:12;3.63;;;3.33;;
15230;SDS011;32569;51.762;8.564;2023-12-20T00:35:39;3.37;;;3.07;;
15230;SDS011;32569;51.762;8.564;2023-12-20T00:38:06;3.20;;;3.00;;
15230;SDS011;32569;51.762;8.564;2023-12-20T00:40:34;2.80;;;2.60;;
15230;SDS011;32569;51.762;8.564;2023-12-20T00:43:00;3.23;;;3.00;;
15230;SDS011;32569;51.762;8.564;2023-12-20T00:45:27;3.07;;;2.73;;
15230;SDS011;32569;51.762;8.564;2023-12-20T00:47:53;2.50;;;2.30;;
15230;SDS011;32569;51.762;8.564;2023-12-20T00:50:21;2.90;;;2.70;;
15230;SDS011;32569;51.762;8.564;2023-12-20T00:52:48;3.63;;;2.43;;
15230;SDS011;32569;51.762;8.564;2023-12-20T00:55:15;2.93;;;2.73;;
15230;SDS011;32569;51.762;8.564;2023-12-20T00:57:41;2.47;;;2.27;;
15230;SDS011;32569;51.762;8.564;2023-12-20T01:00:08;3.20;;;2.67;;
15230;SDS011;32569;51.762;8.564;2023-12-20T01:02:38;3.07;;;2.70;;
15230;SDS011;32569;51.762;8.564;2023-12-20T01:05:06;2.70;;;2.30;;
15230;SDS011;32569;51.762;8.564;2023-12-20T01:07:35;2.10;;;2.00;;
15230;SDS011;32569;51.762;8.564;2023-12-20T01:10:02;2.40;;;2.20;;
15230;SDS011;32569;51.762;8.564;2023-12-20T01:12:29;2.43;;;2.23;;
15230;SDS011;32569;51.762;8.564;2023-12-20T01:14:55;2.00;;;1.90;;
15230;SDS011;32569;51.762;8.564;2023-12-20T01:17:23;3.10;;;2.80;;
15230;SDS011;32569;51.762;8.564;2023-12-20T01:19:50;2.37;;;2.20;;
15230;SDS011;32569;51.762;8.564;2023-12-20T01:22:16;2.43;;;2.23;;
15230;SDS011;32569;51.762;8.564;2023-12-20T01:24:45;2.37;;;2.17;;
15230;SDS011;32569;51.762;8.564;2023-12-20T01:27:11;2.63;;;2.43;;
15230;SDS011;32569;51.762;8.564;2023-12-20T01:29:38;2.40;;;2.30;;
15230;SDS011;32569;51.762;8.564;2023-12-20T01:32:05;3.63;;;2.57;;
15230;SDS011;32569;51.762;8.564;2023-12-20T01:34:32;2.33;;;2.10;;
15230;SDS011;32569;51.762;8.564;2023-12-20T01:37:01;2.27;;;2.17;;
15230;SDS011;32569;51.762;8.564;2023-12-20T01:39:29;2.83;;;2.37;;
15230;SDS011;32569;51.762;8.564;2023-12-20T01:41:57;3.13;;;2.50;;
15230;SDS011;32569;51.762;8.564;2023-12-20T01:44:23;2.60;;;2.40;;
15230;SDS011;32569;51.762;8.564;2023-12-20T01:46:50;3.13;;;2.93;;
15230;SDS011;32569;51.762;8.564;2023-12-20T01:49:16;3.50;;;2.50;;
15230;SDS011;32569;51.762;8.564;2023-12-20T01:51:43;2.77;;;2.57;;
15230;SDS011;32569;51.762;8.564;2023-12-20T01:54:11;3.90;;;2.73;;
15230;SDS011;32569;51.762;8.564;2023-12-20T01:56:38;3.53;;;2.50;;
15230;SDS011;32569;51.762;8.564;2023-12-20T01:59:13;2.90;;;2.60;;
15230;SDS011;32569;51.762;8.564;2023-12-20T02:01:40;3.07;;;2.77;;
15230;SDS011;32569;51.762;8.564;2023-12-20T02:04:07;3.00;;;2.80;;
15230;SDS011;32569;51.762;8.564;2023-12-20T02:06:34;3.17;;;2.60;;
15230;SDS011;32569;51.762;8.564;2023-12-20T02:09:00;2.90;;;2.70;;
15230;SDS011;32569;51.762;8.564;2023-12-20T02:11:27;3.40;;;2.93;;
15230;SDS011;32569;51.762;8.564;2023-12-20T02:13:53;2.90;;;2.70;;
15230;SDS011;32569;51.762;8.564;2023-12-20T02:16:22;3.63;;;2.60;;
15230;SDS011;32569;51.762;8.564;2023-12-20T02:18:48;2.90;;;2.70;;
15230;SDS011;32569;51.762;8.564;2023-12-20T02:21:15;2.80;;;2.60;;
15230;SDS011;32569;51.762;8.564;2023-12-20T02:23:43;4.67;;;2.70;;
15230;SDS011;32569;51.762;8.564;2023-12-20T02:26:09;3.27;;;2.80;;
15230;SDS011;32569;51.762;8.564;2023-12-20T02:28:38;3.17;;;2.50;;
15230;SDS011;32569;51.762;8.564;2023-12-20T02:31:05;3.07;;;2.67;;
15230;SDS011;32569;51.762;8.564;2023-12-20T02:33:32;3.10;;;2.80;;
15230;SDS011;32569;51.762;8.564;2023-12-20T02:35:58;3.50;;;3.20;;
15230;SDS011;32569;51.762;8.564;2023-12-20T02:38:25;2.80;;;2.60;;
15230;SDS011;32569;51.762;8.564;2023-12-20T02:40:53;3.63;;;2.93;;
15230;SDS011;32569;51.762;8.564;2023-12-20T02:43:19;2.83;;;2.63;;
15230;SDS011;32569;51.762;8.564;2023-12-20T02:45:46;3.60;;;2.90;;
15230;SDS011;32569;51.762;8.564;2023-12-20T02:48:13;4.63;;;3.20;;
15230;SDS011;32569;51.762;8.564;2023-12-20T02:50:39;3.30;;;3.10;;
15230;SDS011;32569;51.762;8.564;2023-12-20T02:53:06;3.57;;;3.17;;
15230;SDS011;32569;51.762;8.564;2023-12-20T02:55:32;2.83;;;2.60;;
15230;SDS011;32569;51.762;8.564;2023-12-20T02:58:00;3.03;;;2.80;;
15230;SDS011;32569;51.762;8.564;2023-12-20T03:00:27;3.00;;;2.70;;
15230;SDS011;32569;51.762;8.564;2023-12-20T03:02:54;3.70;;;3.03;;
15230;SDS011;32569;51.762;8.564;2023-12-20T03:05:20;3.13;;;2.93;;
15230;SDS011;32569;51.762;8.564;2023-12-20T03:07:47;3.47;;;3.17;;
15230;SDS011;32569;51.762;8.564;2023-12-20T03:10:13;2.57;;;2.37;;
15230;SDS011;32569;51.762;8.564;2023-12-20T03:12:40;3.47;;;2.83;;
15230;SDS011;32569;51.762;8.564;2023-12-20T03:15:09;3.60;;;3.30;;
15230;SDS011;32569;51.762;8.564;2023-12-20T03:17:35;3.57;;;3.27;;
15230;SDS011;32569;51.762;8.564;2023-12-20T03:20:02;3.40;;;3.20;;
15230;SDS011;32569;51.762;8.564;2023-12-20T03:22:29;4.57;;;3.50;;
15230;SDS011;32569;51.762;8.564;2023-12-20T03:24:56;4.00;;;3.20;;
15230;SDS011;32569;51.762;8.564;2023-12-20T03:27:23;3.20;;;2.90;;
15230;SDS011;32569;51.762;8.564;2023-12-20T03:29:49;3.63;;;3.23;;
15230;SDS011;32569;51.762;8.564;2023-12-20T03:32:17;3.20;;;3.00;;
15230;SDS011;32569;51.762;8.564;2023-12-20T03:34:44;3.50;;;2.90;;
15230;SDS011;32569;51.762;8.564;2023-12-20T03:37:10;3.07;;;2.87;;
15230;SDS011;32569;51.762;8.564;2023-12-20T03:39:37;3.60;;;3.23;;
15230;SDS011;32569;51.762;8.564;2023-12-20T03:42:04;3.33;;;3.03;;
15230;SDS011;32569;51.762;8.564;2023-12-20T03:44:30;3.87;;;3.27;;
15230;SDS011;32569;51.762;8.564;2023-12-20T03:46:57;3.27;;;2.97;;
15230;SDS011;32569;51.762;8.564;2023-12-20T03:49:25;4.37;;;3.47;;
15230;SDS011;32569;51.762;8.564;2023-12-20T03:51:51;3.87;;;3.50;;
15230;SDS011;32569;51.762;8.564;2023-12-20T03:54:18;3.30;;;3.00;;
15230;SDS011;32569;51.762;8.564;2023-12-20T03:56:44;7.53;;;3.47;;
15230;SDS011;32569;51.762;8.564;2023-12-20T03:59:11;3.83;;;3.40;;
15230;SDS011;32569;51.762;8.564;2023-12-20T04:01:38;4.70;;;3.13;;
15230;SDS011;32569;51.762;8.564;2023-12-20T04:04:04;3.63;;;3.27;;
15230;SDS011;32569;51.762;8.564;2023-12-20T04:06:32;3.63;;;2.77;;
15230;SDS011;32569;51.762;8.564;2023-12-20T04:08:59;3.43;;;3.13;;
15230;SDS011;32569;51.762;8.564;2023-12-20T04:11:26;3.03;;;2.60;;
15230;SDS011;32569;51.762;8.564;2023-12-20T04:13:52;4.43;;;2.97;;
15230;SDS011;32569;51.762;8.564;2023-12-20T04:16:19;5.50;;;3.53;;
15230;SDS011;32569;51.762;8.564;2023-12-20T04:18:45;4.80;;;3.50;;
15230;SDS011;32569;51.762;8.564;2023-12-20T04:21:12;3.97;;;2.77;;
15230;SDS011;32569;51.762;8.564;2023-12-20T04:23:40;3.73;;;2.87;;
15230;SDS011;32569;51.762;8.564;2023-12-20T04:26:07;4.97;;;3.03;;
15230;SDS011;32569;51.762;8.564;2023-12-20T04:28:33;3.13;;;2.50;;
15230;SDS011;32569;51.762;8.564;2023-12-20T04:31:00;4.27;;;2.60;;
15230;SDS011;32569;51.762;8.564;2023-12-20T04:33:26;2.97;;;2.47;;
15230;SDS011;32569;51.762;8.564;2023-12-20T04:35:53;4.07;;;2.70;;
15230;SDS011;32569;51.762;8.564;2023-12-20T04:38:20;3.33;;;2.40;;
15230;SDS011;32569;51.762;8.564;2023-12-20T04:40:48;2.97;;;2.67;;
15230;SDS011;32569;51.762;8.564;2023-12-20T04:43:14;3.80;;;2.30;;
15230;SDS011;32569;51.762;8.564;2023-12-20T04:45:41;4.43;;;2.50;;
15230;SDS011;32569;51.762;8.564;2023-12-20T04:48:07;4.13;;;2.67;;
15230;SDS011;32569;51.762;8.564;2023-12-20T04:50:34;4.07;;;2.50;;
15230;SDS011;32569;51.762;8.564;2023-12-20T04:53:01;3.70;;;2.20;;
15230;SDS011;32569;51.762;8.564;2023-12-20T04:55:27;2.37;;;2.00;;
15230;SDS011;32569;51.762;8.564;2023-12-20T04:57:55;2.93;;;2.60;;
15230;SDS011;32569;51.762;8.564;2023-12-20T05:00:22;2.60;;;2.17;;
15230;SDS011;32569;51.762;8.564;2023-12-20T05:02:49;5.17;;;2.60;;
15230;SDS011;32569;51.762;8.564;2023-12-20T05:05:16;3.60;;;2.53;;
15230;SDS011;32569;51.762;8.564;2023-12-20T05:07:42;3.97;;;2.60;;
15230;SDS011;32569;51.762;8.564;2023-12-20T05:10:09;3.00;;;2.63;;
15230;SDS011;32569;51.762;8.564;2023-12-20T05:12:36;3.93;;;2.93;;
15230;SDS011;32569;51.762;8.564;2023-12-20T05:15:05;3.87;;;3.00;;
15230;SDS011;32569;51.762;8.564;2023-12-20T05:17:32;4.67;;;2.77;;
15230;SDS011;32569;51.762;8.564;2023-12-20T05:19:59;3.23;;;2.40;;
15230;SDS011;32569;51.762;8.564;2023-12-20T05:22:25;6.60;;;3.33;;
15230;SDS011;32569;51.762;8.564;2023-12-20T05:24:52;3.80;;;3.43;;
15230;SDS011;32569;51.762;8.564;2023-12-20T05:27:19;4.93;;;3.20;;
15230;SDS011;32569;51.762;8.564;2023-12-20T05:29:45;4.97;;;2.83;;
15230;SDS011;32569;51.762;8.564;2023-12-20T05:32:13;3.83;;;2.90;;
15230;SDS011;32569;51.762;8.564;2023-12-20T05:34:40;3.20;;;2.90;;
15230;SDS011;32569;51.762;8.564;2023-12-20T05:37:06;3.50;;;3.20;;
15230;SDS011;32569;51.762;8.564;2023-12-20T05:39:33;6.27;;;3.37;;
15230;SDS011;32569;51.762;8.564;2023-12-20T05:42:00;4.53;;;3.17;;
15230;SDS011;32569;51.762;8.564;2023-12-20T05:44:26;5.07;;;3.30;;
15230;SDS011;32569;51.762;8.564;2023-12-20T05:46:53;3.67;;;3.37;;
15230;SDS011;32569;51.762;8.564;2023-12-20T05:49:21;3.93;;;3.53;;
15230;SDS011;32569;51.762;8.564;2023-12-20T05:51:47;4.50;;;3.57;;
15230;SDS011;32569;51.762;8.564;2023-12-20T05:54:15;6.13;;;3.80;;
15230;SDS011;32569;51.762;8.564;2023-12-20T05:56:41;4.37;;;3.30;;
15230;SDS011;32569;51.762;8.564;2023-12-20T05:59:08;5.63;;;4.10;;
15230;SDS011;32569;51.762;8.564;2023-12-20T06:01:35;4.33;;;3.60;;
15230;SDS011;32569;51.762;8.564;2023-12-20T06:04:01;5.80;;;3.60;;
15230;SDS011;32569;51.762;8.564;2023-12-20T06:06:30;5.90;;;3.80;;
15230;SDS011;32569;51.762;8.564;2023-12-20T06:08:57;4.57;;;3.73;;
15230;SDS011;32569;51.762;8.564;2023-12-20T06:11:27;3.60;;;3.27;;
15230;SDS011;32569;51.762;8.564;2023-12-20T06:13:53;4.37;;;3.97;;
15230;SDS011;32569;51.762;8.564;2023-12-20T06:16:20;5.00;;;3.90;;
15230;SDS011;32569;51.762;8.564;2023-12-20T06:18:47;4.67;;;3.90;;
15230;SDS011;32569;51.762;8.564;2023-12-20T06:21:13;6.27;;;3.87;;
15230;SDS011;32569;51.762;8.564;2023-12-20T06:23:51;4.30;;;3.90;;
15230;SDS011;32569;51.762;8.564;2023-12-20T06:26:18;4.47;;;4.13;;
15230;SDS011;32569;51.762;8.564;2023-12-20T06:28:44;8.00;;;4.47;;
15230;SDS011;32569;51.762;8.564;2023-12-20T06:31:11;4.87;;;3.90;;
15230;SDS011;32569;51.762;8.564;2023-12-20T06:33:38;4.73;;;4.30;;
15230;SDS011;32569;51.762;8.564;2023-12-20T06:36:07;5.63;;;4.37;;
15230;SDS011;32569;51.762;8.564;2023-12-20T06:38:33;6.27;;;4.40;;
15230;SDS011;32569;51.762;8.564;2023-12-20T06:41:01;6.27;;;4.67;;
15230;SDS011;32569;51.762;8.564;2023-12-20T06:43:28;6.30;;;5.10;;
15230;SDS011;32569;51.762;8.564;2023-12-20T06:45:56;6.00;;;4.97;;
15230;SDS011;32569;51.762;8.564;2023-12-20T06:48:24;7.30;;;5.23;;
15230;SDS011;32569;51.762;8.564;2023-12-20T06:50:50;4.50;;;3.90;;
15230;SDS011;32569;51.762;8.564;2023-12-20T06:53:17;7.90;;;5.13;;
15230;SDS011;32569;51.762;8.564;2023-12-20T06:55:44;6.97;;;5.30;;
15230;SDS011;32569;51.762;8.564;2023-12-20T06:58:14;5.00;;;4.50;;
15230;SDS011;32569;51.762;8.564;2023-12-20T07:00:41;6.27;;;4.43;;
15230;SDS011;32569;51.762;8.564;2023-12-20T07:03:08;4.80;;;4.40;;
15230;SDS011;32569;51.762;8.564;2023-12-20T07:05:35;5.27;;;4.70;;
15230;SDS011;32569;51.762;8.564;2023-12-20T07:08:02;6.80;;;4.80;;
15230;SDS011;32569;51.762;8.564;2023-12-20T07:10:30;4.80;;;4.40;;
15230;SDS011;32569;51.762;8.564;2023-12-20T07:12:56;6.13;;;4.70;;
15230;SDS011;32569;51.762;8.564;2023-12-20T07:15:24;4.40;;;4.00;;
15230;SDS011;32569;51.762;8.564;2023-12-20T07:17:51;5.33;;;4.53;;
15230;SDS011;32569;51.762;8.564;2023-12-20T07:20:18;6.03;;;4.60;;
15230;SDS011;32569;51.762;8.564;2023-12-20T07:22:45;5.67;;;5.10;;
15230;SDS011;32569;51.762;8.564;2023-12-20T07:25:11;5.47;;;4.80;;
15230;SDS011;32569;51.762;8.564;2023-12-20T07:27:38;6.03;;;5.13;;
15230;SDS011;32569;51.762;8.564;2023-12-20T07:30:05;5.30;;;4.80;;
15230;SDS011;32569;51.762;8.564;2023-12-20T07:32:33;5.90;;;4.73;;
15230;SDS011;32569;51.762;8.564;2023-12-20T07:35:00;4.97;;;4.23;;
15230;SDS011;32569;51.762;8.564;2023-12-20T07:37:27;5.07;;;4.57;;
15230;SDS011;32569;51.762;8.564;2023-12-20T07:39:54;6.57;;;4.20;;
15230;SDS011;32569;51.762;8.564;2023-12-20T07:42:21;5.20;;;4.70;;
15230;SDS011;32569;51.762;8.564;2023-12-20T07:44:47;6.23;;;4.33;;
15230;SDS011;32569;51.762;8.564;2023-12-20T07:47:14;5.33;;;4.50;;
15230;SDS011;32569;51.762;8.564;2023-12-20T07:49:45;5.27;;;4.63;;
15230;SDS011;32569;51.762;8.564;2023-12-20T07:52:12;4.93;;;4.43;;
15230;SDS011;32569;51.762;8.564;2023-12-20T07:54:39;7.47;;;4.10;;
15230;SDS011;32569;51.762;8.564;2023-12-20T07:57:06;4.57;;;3.90;;
15230;SDS011;32569;51.762;8.564;2023-12-20T07:59:32;8.17;;;4.60;;
15230;SDS011;32569;51.762;8.564;2023-12-20T08:01:59;7.47;;;4.20;;
15230;SDS011;32569;51.762;8.564;2023-12-20T08:04:25;5.00;;;4.37;;
15230;SDS011;32569;51.762;8.564;2023-12-20T08:06:53;4.47;;;3.33;;
15230;SDS011;32569;51.762;8.564;2023-12-20T08:09:20;5.37;;;4.10;;
15230;SDS011;32569;51.762;8.564;2023-12-20T08:11:47;4.83;;;4.37;;
15230;SDS011;32569;51.762;8.564;2023-12-20T08:14:14;5.30;;;4.20;;
15230;SDS011;32569;51.762;8.564;2023-12-20T08:16:41;5.73;;;4.17;;
15230;SDS011;32569;51.762;8.564;2023-12-20T08:19:08;7.23;;;4.30;;
15230;SDS011;32569;51.762;8.564;2023-12-20T08:21:34;4.50;;;4.10;;
15230;SDS011;32569;51.762;8.564;2023-12-20T08:24:02;4.57;;;4.17;;
15230;SDS011;32569;51.762;8.564;2023-12-20T08:26:29;4.27;;;3.83;;
15230;SDS011;32569;51.762;8.564;2023-12-20T08:28:56;3.87;;;3.47;;
15230;SDS011;32569;51.762;8.564;2023-12-20T08:31:22;7.77;;;4.13;;
15230;SDS011;32569;51.762;8.564;2023-12-20T08:33:49;5.17;;;4.17;;
15230;SDS011;32569;51.762;8.564;2023-12-20T08:36:17;4.20;;;3.73;;
15230;SDS011;32569;51.762;8.564;2023-12-20T08:38:46;5.43;;;4.13;;
15230;SDS011;32569;51.762;8.564;2023-12-20T08:41:15;4.00;;;3.70;;
15230;SDS011;32569;51.762;8.564;2023-12-20T08:43:43;6.27;;;3.63;;
15230;SDS011;32569;51.762;8.564;2023-12-20T08:46:09;5.67;;;3.90;;
15230;SDS011;32569;51.762;8.564;2023-12-20T08:48:36;3.70;;;3.27;;
15230;SDS011;32569;51.762;8.564;2023-12-20T08:51:03;5.27;;;3.77;;
15230;SDS011;32569;51.762;8.564;2023-12-20T08:53:32;5.23;;;3.90;;
15230;SDS011;32569;51.762;8.564;2023-12-20T08:55:59;5.13;;;3.77;;
15230;SDS011;32569;51.762;8.564;2023-12-20T08:58:28;5.10;;;3.87;;
15230;SDS011;32569;51.762;8.564;2023-12-20T09:00:55;4.53;;;3.80;;
15230;SDS011;32569;51.762;8.564;2023-12-20T09:03:22;4.97;;;3.57;;
15230;SDS011;32569;51.762;8.564;2023-12-20T09:05:49;5.60;;;3.40;;
15230;SDS011;32569;51.762;8.564;2023-12-20T09:08:15;4.03;;;3.60;;
15230;SDS011;32569;51.762;8.564;2023-12-20T09:10:42;5.60;;;4.33;;
15230;SDS011;32569;51.762;8.564;2023-12-20T09:13:09;5.03;;;3.47;;
15230;SDS011;32569;51.762;8.564;2023-12-20T09:15:37;4.93;;;4.03;;
15230;SDS011;32569;51.762;8.564;2023-12-20T09:18:04;7.17;;;3.70;;
15230;SDS011;32569;51.762;8.564;2023-12-20T09:20:31;6.53;;;3.50;;
15230;SDS011;32569;51.762;8.564;2023-12-20T09:22:58;3.73;;;3.43;;
15230;SDS011;32569;51.762;8.564;2023-12-20T09:25:26;7.03;;;3.67;;
15230;SDS011;32569;51.762;8.564;2023-12-20T09:27:54;4.80;;;3.13;;
15230;SDS011;32569;51.762;8.564;2023-12-20T09:30:21;4.80;;;3.60;;
15230;SDS011;32569;51.762;8.564;2023-12-20T09:32:52;4.10;;;3.70;;
15230;SDS011;32569;51.762;8.564;2023-12-20T09:35:19;6.33;;;3.80;;
15230;SDS011;32569;51.762;8.564;2023-12-20T09:37:45;6.80;;;3.53;;
15230;SDS011;32569;51.762;8.564;2023-12-20T09:40:12;6.03;;;3.83;;
15230;SDS011;32569;51.762;8.564;2023-12-20T09:42:41;5.13;;;3.60;;
15230;SDS011;32569;51.762;8.564;2023-12-20T09:45:14;4.33;;;3.70;;
15230;SDS011;32569;51.762;8.564;2023-12-20T09:47:42;3.70;;;3.27;;
15230;SDS011;32569;51.762;8.564;2023-12-20T09:50:11;4.67;;;3.70;;
15230;SDS011;32569;51.762;8.564;2023-12-20T09:52:39;3.93;;;3.60;;
15230;SDS011;32569;51.762;8.564;2023-12-20T09:55:07;5.83;;;3.77;;
15230;SDS011;32569;51.762;8.564;2023-12-20T09:57:34;6.50;;;4.30;;
15230;SDS011;32569;51.762;8.564;2023-12-20T10:00:01;4.07;;;3.67;;
15230;SDS011;32569;51.762;8.564;2023-12-20T10:02:28;6.57;;;4.37;;
15230;SDS011;32569;51.762;8.564;2023-12-20T10:04:57;5.60;;;3.63;;
15230;SDS011;32569;51.762;8.564;2023-12-20T10:07:25;4.33;;;3.93;;
15230;SDS011;32569;51.762;8.564;2023-12-20T10:09:53;3.80;;;3.50;;
15230;SDS011;32569;51.762;8.564;2023-12-20T10:12:20;4.33;;;3.60;;
15230;SDS011;32569;51.762;8.564;2023-12-20T10:14:47;3.63;;;3.33;;
15230;SDS011;32569;51.762;8.564;2023-12-20T10:17:14;4.93;;;4.13;;
15230;SDS011;32569;51.762;8.564;2023-12-20T10:19:42;4.17;;;3.50;;
15230;SDS011;32569;51.762;8.564;2023-12-20T10:22:09;5.47;;;4.30;;
15230;SDS011;32569;51.762;8.564;2023-12-20T10:24:38;5.13;;;3.43;;
15230;SDS011;32569;51.762;8.564;2023-12-20T10:27:07;4.40;;;3.80;;
15230;SDS011;32569;51.762;8.564;2023-12-20T10:29:35;5.77;;;3.87;;
15230;SDS011;32569;51.762;8.564;2023-12-20T10:32:21;7.20;;;3.73;;
15230;SDS011;32569;51.762;8.564;2023-12-20T10:34:48;4.67;;;3.80;;
15230;SDS011;32569;51.762;8.564;2023-12-20T10:37:15;4.93;;;3.73;;
15230;SDS011;32569;51.762;8.564;2023-12-20T10:39:43;4.87;;;4.23;;
15230;SDS011;32569;51.762;8.564;2023-12-20T10:42:13;3.83;;;3.43;;
15230;SDS011;32569;51.762;8.564;2023-12-20T10:44:41;4.27;;;3.37;;
15230;SDS011;32569;51.762;8.564;2023-12-20T10:47:09;3.57;;;3.27;;
15230;SDS011;32569;51.762;8.564;2023-12-20T10:49:37;5.13;;;3.87;;
15230;SDS011;32569;51.762;8.564;2023-12-20T10:52:06;6.20;;;4.13;;
15230;SDS011;32569;51.762;8.564;2023-12-20T10:54:35;7.30;;;4.00;;
15230;SDS011;32569;51.762;8.564;2023-12-20T10:57:03;5.90;;;3.87;;
15230;SDS011;32569;51.762;8.564;2023-12-20T10:59:32;5.33;;;3.60;;
15230;SDS011;32569;51.762;8.564;2023-12-20T11:02:00;6.77;;;3.43;;
15230;SDS011;32569;51.762;8.564;2023-12-20T11:04:31;5.30;;;3.30;;
15230;SDS011;32569;51.762;8.564;2023-12-20T11:07:08;4.80;;;3.83;;
15230;SDS011;32569;51.762;8.564;2023-12-20T11:09:43;4.53;;;3.73;;
15230;SDS011;32569;51.762;8.564;2023-12-20T11:12:17;4.00;;;3.60;;
15230;SDS011;32569;51.762;8.564;2023-12-20T11:14:50;5.53;;;3.80;;
15230;SDS011;32569;51.762;8.564;2023-12-20T11:17:20;4.40;;;3.57;;
15230;SDS011;32569;51.762;8.564;2023-12-20T11:20:06;4.83;;;3.87;;
15230;SDS011;32569;51.762;8.564;2023-12-20T11:22:35;4.97;;;3.60;;
15230;SDS011;32569;51.762;8.564;2023-12-20T11:25:03;4.63;;;3.63;;
15230;SDS011;32569;51.762;8.564;2023-12-20T11:27:33;3.30;;;3.10;;
15230;SDS011;32569;51.762;8.564;2023-12-20T11:30:00;5.03;;;3.70;;
15230;SDS011;32569;51.762;8.564;2023-12-20T11:32:31;4.80;;;4.17;;
15230;SDS011;32569;51.762;8.564;2023-12-20T11:35:00;5.73;;;3.80;;
15230;SDS011;32569;51.762;8.564;2023-12-20T11:37:42;4.07;;;3.67;;
15230;SDS011;32569;51.762;8.564;2023-12-20T11:40:11;5.63;;;3.87;;
15230;SDS011;32569;51.762;8.564;2023-12-20T11:42:41;4.20;;;3.80;;
15230;SDS011;32569;51.762;8.564;2023-12-20T11:45:09;4.23;;;3.83;;
15230;SDS011;32569;51.762;8.564;2023-12-20T11:47:36;5.37;;;4.07;;
15230;SDS011;32569;51.762;8.564;2023-12-20T11:50:05;5.00;;;3.47;;
15230;SDS011;32569;51.762;8.564;2023-12-20T11:52:32;6.07;;;3.80;;
15230;SDS011;32569;51.762;8.564;2023-12-20T11:55:02;6.03;;;4.03;;
15230;SDS011;32569;51.762;8.564;2023-12-20T11:57:29;6.00;;;3.60;;
15230;SDS011;32569;51.762;8.564;2023-12-20T11:59:57;4.83;;;3.20;;
15230;SDS011;32569;51.762;8.564;2023-12-20T12:02:24;4.97;;;3.90;;
15230;SDS011;32569;51.762;8.564;2023-12-20T12:04:50;3.70;;;3.30;;
15230;SDS011;32569;51.762;8.564;2023-12-20T12:07:17;6.23;;;3.43;;
15230;SDS011;32569;51.762;8.564;2023-12-20T12:09:44;4.23;;;3.80;;
15230;SDS011;32569;51.762;8.564;2023-12-20T12:12:14;5.03;;;4.43;;
15230;SDS011;32569;51.762;8.564;2023-12-20T12:14:41;6.83;;;4.23;;
15230;SDS011;32569;51.762;8.564;2023-12-20T12:17:11;3.93;;;3.33;;
15230;SDS011;32569;51.762;8.564;2023-12-20T12:19:38;4.30;;;3.90;;
15230;SDS011;32569;51.762;8.564;2023-12-20T12:22:05;4.27;;;3.70;;
15230;SDS011;32569;51.762;8.564;2023-12-20T12:24:35;4.93;;;3.50;;
15230;SDS011;32569;51.762;8.564;2023-12-20T12:27:02;3.80;;;3.40;;
15230;SDS011;32569;51.762;8.564;2023-12-20T12:29:29;4.77;;;3.63;;
15230;SDS011;32569;51.762;8.564;2023-12-20T12:31:56;5.67;;;3.80;;
15230;SDS011;32569;51.762;8.564;2023-12-20T12:34:24;4.00;;;3.70;;
15230;SDS011;32569;51.762;8.564;2023-12-20T12:36:53;3.47;;;3.20;;
15230;SDS011;32569;51.762;8.564;2023-12-20T12:39:19;4.30;;;3.67;;
15230;SDS011;32569;51.762;8.564;2023-12-20T12:41:46;3.93;;;3.20;;
15230;SDS011;32569;51.762;8.564;2023-12-20T12:44:13;3.33;;;2.93;;
15230;SDS011;32569;51.762;8.564;2023-12-20T12:46:39;5.03;;;3.30;;
15230;SDS011;32569;51.762;8.564;2023-12-20T12:49:06;5.03;;;3.53;;
15230;SDS011;32569;51.762;8.564;2023-12-20T12:51:34;3.73;;;3.33;;
15230;SDS011;32569;51.762;8.564;2023-12-20T12:54:01;3.87;;;3.30;;
15230;SDS011;32569;51.762;8.564;2023-12-20T12:56:28;4.33;;;3.30;;
15230;SDS011;32569;51.762;8.564;2023-12-20T12:58:55;3.50;;;2.90;;
15230;SDS011;32569;51.762;8.564;2023-12-20T13:01:22;4.57;;;3.07;;
15230;SDS011;32569;51.762;8.564;2023-12-20T13:03:48;3.33;;;3.00;;
15230;SDS011;32569;51.762;8.564;2023-12-20T13:06:15;3.70;;;3.27;;
15230;SDS011;32569;51.762;8.564;2023-12-20T13:08:43;3.53;;;3.03;;
15230;SDS011;32569;51.762;8.564;2023-12-20T13:11:11;3.20;;;2.90;;
15230;SDS011;32569;51.762;8.564;2023-12-20T13:13:38;2.97;;;2.77;;
15230;SDS011;32569;51.762;8.564;2023-12-20T13:16:04;3.90;;;3.00;;
15230;SDS011;32569;51.762;8.564;2023-12-20T13:18:31;2.80;;;2.50;;
15230;SDS011;32569;51.762;8.564;2023-12-20T13:20:58;2.87;;;2.63;;
15230;SDS011;32569;51.762;8.564;2023-12-20T13:23:25;2.87;;;2.50;;
15230;SDS011;32569;51.762;8.564;2023-12-20T13:25:53;2.90;;;2.57;;
15230;SDS011;32569;51.762;8.564;2023-12-20T13:28:20;3.50;;;2.63;;
15230;SDS011;32569;51.762;8.564;2023-12-20T13:30:46;2.53;;;2.30;;
15230;SDS011;32569;51.762;8.564;2023-12-20T13:33:13;3.13;;;2.43;;
15230;SDS011;32569;51.762;8.564;2023-12-20T13:35:39;4.87;;;2.73;;
15230;SDS011;32569;51.762;8.564;2023-12-20T13:38:06;4.13;;;2.83;;
15230;SDS011;32569;51.762;8.564;2023-12-20T13:40:33;2.97;;;2.77;;
15230;SDS011;32569;51.762;8.564;2023-12-20T13:43:01;3.77;;;2.70;;
15230;SDS011;32569;51.762;8.564;2023-12-20T13:45:28;2.70;;;2.50;;
15230;SDS011;32569;51.762;8.564;2023-12-20T13:47:55;2.90;;;2.60;;
15230;SDS011;32569;51.762;8.564;2023-12-20T13:50:22;3.10;;;2.90;;
15230;SDS011;32569;51.762;8.564;2023-12-20T13:52:48;4.17;;;3.03;;
15230;SDS011;32569;51.762;8.564;2023-12-20T13:55:15;3.33;;;3.03;;
15230;SDS011;32569;51.762;8.564;2023-12-20T13:57:42;3.20;;;2.90;;
15230;SDS011;32569;51.762;8.564;2023-12-20T14:00:10;3.50;;;3.00;;
15230;SDS011;32569;51.762;8.564;2023-12-20T14:02:39;3.87;;;3.47;;
15230;SDS011;32569;51.762;8.564;2023-12-20T14:05:07;3.50;;;3.20;;
15230;SDS011;32569;51.762;8.564;2023-12-20T14:07:34;3.47;;;3.17;;
15230;SDS011;32569;51.762;8.564;2023-12-20T14:10:01;4.00;;;3.63;;
15230;SDS011;32569;51.762;8.564;2023-12-20T14:12:28;3.60;;;3.23;;
15230;SDS011;32569;51.762;8.564;2023-12-20T14:14:54;3.80;;;3.50;;
15230;SDS011;32569;51.762;8.564;2023-12-20T14:17:23;3.80;;;3.13;;
15230;SDS011;32569;51.762;8.564;2023-12-20T14:19:49;3.57;;;3.27;;
15230;SDS011;32569;51.762;8.564;2023-12-20T14:22:16;4.03;;;3.50;;
15230;SDS011;32569;51.762;8.564;2023-12-20T14:24:43;6.57;;;3.90;;
15230;SDS011;32569;51.762;8.564;2023-12-20T14:27:10;5.23;;;3.50;;
15230;SDS011;32569;51.762;8.564;2023-12-20T14:29:38;7.03;;;4.53;;
15230;SDS011;32569;51.762;8.564;2023-12-20T14:32:05;3.90;;;3.60;;
15230;SDS011;32569;51.762;8.564;2023-12-20T14:34:33;6.03;;;4.20;;
15230;SDS011;32569;51.762;8.564;2023-12-20T14:37:01;3.73;;;3.43;;
15230;SDS011;32569;51.762;8.564;2023-12-20T14:39:27;4.00;;;3.63;;
15230;SDS011;32569;51.762;8.564;2023-12-20T14:41:54;5.43;;;3.90;;
15230;SDS011;32569;51.762;8.564;2023-12-20T14:44:20;3.77;;;3.47;;
15230;SDS011;32569;51.762;8.564;2023-12-20T14:46:47;6.27;;;4.40;;
15230;SDS011;32569;51.762;8.564;2023-12-20T14:49:13;5.07;;;3.80;;